Time;durP1;ratioP1;P1;durP2;ratioP2;P2;SDS_P1;SDS_P2;PMS_P1;PMS_P2;Temp;Humidity;BMP_temperature;BMP_pressure;BME280_temperature;BME280_humidity;BME280_pressure;Samples;Min_cycle;Max_cycle;Signal;HPM_P1;HPM_P2
2022/10/25 00:01:31;;;;;;;22.60;11.63;;;;;;;;;;5073476;28;20094;-72
2022/10/25 00:03:57;;;;;;;18.58;10.70;;;;;;;;;;5074103;28;20032;-72
2022/10/25 00:06:24;;;;;;;23.08;10.90;;;;;;;;;;5073658;28;20512;-71
2022/10/25 00:08:50;;;;;;;23.05;10.88;;;;;;;;;;5073896;28;20065;-71
2022/10/25 00:11:20;;;;;;;24.40;11.65;;;;;;;;;;5073404;28;20041;-71
2022/10/25 00:13:48;;;;;;;23.90;11.25;;;;;;;;;;5073458;28;20032;-71
2022/10/25 00:16:15;;;;;;;22.40;10.48;;;;;;;;;;5073742;28;20475;-71
2022/10/25 00:18:41;;;;;;;21.77;10.35;;;;;;;;;;5073365;28;20056;-72
2022/10/25 00:21:07;;;;;;;22.35;10.35;;;;;;;;;;5073933;28;20029;-72
2022/10/25 00:23:33;;;;;;;19.55;9.68;;;;;;;;;;5073424;28;20025;-71
2022/10/25 00:26:03;;;;;;;17.60;10.68;;;;;;;;;;5073537;28;20021;-72
2022/10/25 00:28:29;;;;;;;20.70;10.23;;;;;;;;;;5073019;28;20020;-72
2022/10/25 00:30:59;;;;;;;19.15;10.38;;;;;;;;;;5055394;28;20040;-72
2022/10/25 00:33:25;;;;;;;17.15;10.48;;;;;;;;;;5055158;28;20032;-71
2022/10/25 00:35:52;;;;;;;31.55;10.60;;;;;;;;;;5073164;28;20025;-72
2022/10/25 00:38:18;;;;;;;20.80;10.80;;;;;;;;;;5073053;28;20028;-72
2022/10/25 00:40:44;;;;;;;20.42;9.70;;;;;;;;;;5073147;28;20070;-72
2022/10/25 00:43:10;;;;;;;22.10;9.45;;;;;;;;;;5072858;28;20021;-72
2022/10/25 00:45:36;;;;;;;25.65;9.77;;;;;;;;;;5073411;28;20055;-72
2022/10/25 00:48:06;;;;;;;20.67;10.02;;;;;;;;;;5073297;28;20021;-71
2022/10/25 00:50:35;;;;;;;23.67;9.55;;;;;;;;;;5072931;28;20024;-72
2022/10/25 00:53:04;;;;;;;19.20;10.43;;;;;;;;;;5073230;28;20035;-71
2022/10/25 00:55:30;;;;;;;21.33;10.10;;;;;;;;;;5054872;28;20040;-73
2022/10/25 00:57:59;;;;;;;18.10;9.60;;;;;;;;;;5072589;28;20042;-72
2022/10/25 01:00:25;;;;;;;16.50;8.85;;;;;;;;;;5072550;28;20104;-71
2022/10/25 01:02:52;;;;;;;21.35;10.48;;;;;;;;;;5072784;28;20474;-72
2022/10/25 01:05:18;;;;;;;20.45;9.40;;;;;;;;;;5072738;28;20028;-72
2022/10/25 01:07:44;;;;;;;18.40;8.38;;;;;;;;;;5072823;28;20048;-72
2022/10/25 01:10:11;;;;;;;18.23;8.70;;;;;;;;;;5072414;28;20390;-71
2022/10/25 01:12:37;;;;;;;23.63;9.55;;;;;;;;;;5071680;28;20102;-71
2022/10/25 01:15:04;;;;;;;22.70;9.63;;;;;;;;;;5054719;28;20046;-72
2022/10/25 01:17:38;;;;;;;20.35;9.10;;;;;;;;;;5072530;28;20033;-71
2022/10/25 01:20:13;;;;;;;19.45;8.63;;;;;;;;;;5072755;28;20024;-72
2022/10/25 01:22:47;;;;;;;21.33;9.18;;;;;;;;;;5054552;28;20093;-71
2022/10/25 01:25:29;;;;;;;17.83;8.40;;;;;;;;;;5054081;28;20038;-72
2022/10/25 01:28:01;;;;;;;21.35;8.68;;;;;;;;;;5072565;28;20094;-71
2022/10/25 01:30:46;;;;;;;15.90;8.25;;;;;;;;;;5072396;28;20020;-72
2022/10/25 01:33:47;;;;;;;21.63;8.90;;;;;;;;;;5054450;28;20036;-72
2022/10/25 01:36:16;;;;;;;30.25;8.73;;;;;;;;;;5010614;28;20141;-71
2022/10/25 01:38:56;;;;;;;18.20;8.73;;;;;;;;;;5010640;28;20053;-72
2022/10/25 01:41:22;;;;;;;13.93;8.43;;;;;;;;;;5010690;28;20026;-71
2022/10/25 01:43:54;;;;;;;23.98;8.95;;;;;;;;;;5010674;28;20149;-71
2022/10/25 01:46:25;;;;;;;21.65;8.90;;;;;;;;;;5010390;28;20100;-72
2022/10/25 01:49:04;;;;;;;39.57;12.73;;;;;;;;;;5010756;28;20092;-72
2022/10/25 01:51:31;;;;;;;20.25;12.65;;;;;;;;;;5010476;28;20570;-72
2022/10/25 01:53:57;;;;;;;26.02;14.15;;;;;;;;;;5010725;28;20034;-72
2022/10/25 01:56:37;;;;;;;26.23;13.68;;;;;;;;;;5010315;28;20030;-71
2022/10/25 01:59:03;;;;;;;26.23;14.93;;;;;;;;;;4993869;28;20073;-71
2022/10/25 02:01:35;;;;;;;36.08;16.33;;;;;;;;;;4993939;28;20054;-72
2022/10/25 02:04:19;;;;;;;30.33;14.82;;;;;;;;;;5010471;28;20042;-71
2022/10/25 02:07:04;;;;;;;28.33;16.00;;;;;;;;;;5010356;28;20060;-71
2022/10/25 02:09:34;;;;;;;26.50;15.90;;;;;;;;;;5023333;28;20546;-71
2022/10/25 02:12:00;;;;;;;27.27;16.15;;;;;;;;;;5072362;28;20432;-71
2022/10/25 02:14:32;;;;;;;25.27;15.00;;;;;;;;;;5072028;28;20029;-72
2022/10/25 02:17:00;;;;;;;27.52;15.05;;;;;;;;;;5072001;28;20115;-71
2022/10/25 02:19:33;;;;;;;27.17;15.30;;;;;;;;;;5072474;28;20023;-71
2022/10/25 02:22:00;;;;;;;25.17;14.75;;;;;;;;;;5071959;28;20056;-71
2022/10/25 02:24:28;;;;;;;31.92;14.57;;;;;;;;;;5075369;28;20036;-71
2022/10/25 02:26:54;;;;;;;25.55;14.18;;;;;;;;;;5075809;28;20024;-71
2022/10/25 02:29:22;;;;;;;25.00;14.18;;;;;;;;;;5075536;28;20023;-71
2022/10/25 02:31:48;;;;;;;27.00;14.50;;;;;;;;;;5075527;28;20498;-71
2022/10/25 02:34:14;;;;;;;31.50;14.05;;;;;;;;;;5075529;28;20021;-71
2022/10/25 02:36:40;;;;;;;24.25;13.60;;;;;;;;;;5075410;28;20074;-71
2022/10/25 02:39:06;;;;;;;23.08;11.73;;;;;;;;;;5075774;28;20386;-71
2022/10/25 02:41:33;;;;;;;19.60;11.90;;;;;;;;;;5057486;28;20017;-71
2022/10/25 02:43:59;;;;;;;21.42;11.80;;;;;;;;;;5057318;28;20421;-71
2022/10/25 02:46:25;;;;;;;18.52;11.40;;;;;;;;;;5075377;28;20021;-71
2022/10/25 02:48:51;;;;;;;20.30;11.57;;;;;;;;;;5075381;28;20047;-71
2022/10/25 02:51:18;;;;;;;20.10;11.60;;;;;;;;;;5075478;28;20075;-71
2022/10/25 02:53:45;;;;;;;21.40;12.13;;;;;;;;;;5075023;28;20042;-71
2022/10/25 02:56:16;;;;;;;18.95;10.98;;;;;;;;;;5075238;28;20542;-72
2022/10/25 02:58:42;;;;;;;61.75;32.92;;;;;;;;;;5056984;28;20071;-71
2022/10/25 03:01:09;;;;;;;22.30;13.07;;;;;;;;;;5075086;28;20463;-71
2022/10/25 03:03:35;;;;;;;19.63;11.40;;;;;;;;;;5074974;28;20031;-72
2022/10/25 03:06:01;;;;;;;21.52;11.27;;;;;;;;;;5074999;28;20027;-71
2022/10/25 03:08:28;;;;;;;23.45;12.40;;;;;;;;;;5074670;28;20123;-71
2022/10/25 03:10:54;;;;;;;18.63;10.35;;;;;;;;;;5074881;28;20086;-72
2022/10/25 03:13:21;;;;;;;20.13;10.18;;;;;;;;;;5074549;28;20028;-71
2022/10/25 03:15:47;;;;;;;17.70;11.35;;;;;;;;;;5056722;28;20546;-71
2022/10/25 03:18:13;;;;;;;25.58;11.75;;;;;;;;;;5074668;28;20032;-72
2022/10/25 03:20:40;;;;;;;19.60;10.13;;;;;;;;;;5074688;28;20035;-72
2022/10/25 03:23:06;;;;;;;19.08;9.38;;;;;;;;;;5074651;28;20036;-71
2022/10/25 03:25:32;;;;;;;14.60;7.95;;;;;;;;;;5074771;28;20119;-72
2022/10/25 03:28:01;;;;;;;18.10;9.55;;;;;;;;;;5074794;28;20336;-72
2022/10/25 03:30:28;;;;;;;19.52;8.88;;;;;;;;;;5074325;28;20099;-73
2022/10/25 03:32:54;;;;;;;22.13;9.60;;;;;;;;;;5074487;28;20024;-72
2022/10/25 03:35:20;;;;;;;20.73;9.77;;;;;;;;;;5073493;28;20098;-72
2022/10/25 03:37:47;;;;;;;20.10;9.43;;;;;;;;;;5074123;28;20103;-72
2022/10/25 03:40:13;;;;;;;25.45;11.30;;;;;;;;;;5074327;28;20024;-72
2022/10/25 03:42:39;;;;;;;27.77;10.98;;;;;;;;;;5074307;28;20100;-71
2022/10/25 03:45:06;;;;;;;19.98;10.93;;;;;;;;;;5074190;28;20485;-71
2022/10/25 03:47:32;;;;;;;31.80;13.57;;;;;;;;;;5074192;28;20047;-72
2022/10/25 03:49:58;;;;;;;22.20;13.40;;;;;;;;;;5073936;28;20028;-71
2022/10/25 03:52:24;;;;;;;26.20;14.48;;;;;;;;;;5074142;28;20032;-72
2022/10/25 03:54:50;;;;;;;24.80;14.32;;;;;;;;;;5074037;28;20471;-71
2022/10/25 03:57:16;;;;;;;26.83;16.17;;;;;;;;;;5073964;28;20493;-71
2022/10/25 03:59:43;;;;;;;25.05;12.20;;;;;;;;;;5073763;28;20025;-72
2022/10/25 04:02:10;;;;;;;24.83;11.90;;;;;;;;;;5055944;28;20382;-72
2022/10/25 04:04:36;;;;;;;21.27;10.52;;;;;;;;;;5073733;28;20471;-72
2022/10/25 04:07:02;;;;;;;29.05;13.50;;;;;;;;;;5073938;28;20386;-72
2022/10/25 04:09:28;;;;;;;28.33;14.73;;;;;;;;;;5073539;28;20028;-72
2022/10/25 04:11:54;;;;;;;45.22;25.45;;;;;;;;;;5073477;28;20379;-72
2022/10/25 04:14:20;;;;;;;28.50;13.63;;;;;;;;;;5073680;28;20023;-71
2022/10/25 04:16:46;;;;;;;18.90;10.60;;;;;;;;;;5073466;28;20036;-71
2022/10/25 04:19:12;;;;;;;18.92;9.75;;;;;;;;;;5073565;28;20028;-71
2022/10/25 04:21:38;;;;;;;19.95;9.57;;;;;;;;;;5073540;28;20065;-71
2022/10/25 04:24:05;;;;;;;23.35;12.48;;;;;;;;;;5073441;28;20032;-71
2022/10/25 04:26:33;;;;;;;28.90;14.18;;;;;;;;;;5073518;28;20016;-71
2022/10/25 04:29:00;;;;;;;26.17;14.02;;;;;;;;;;5073314;28;20028;-71
2022/10/25 04:31:26;;;;;;;26.17;13.60;;;;;;;;;;5073272;28;20021;-71
2022/10/25 04:33:53;;;;;;;25.75;14.27;;;;;;;;;;5073237;28;20028;-71
2022/10/25 04:36:19;;;;;;;25.40;14.43;;;;;;;;;;5073398;28;20009;-71
2022/10/25 04:38:49;;;;;;;28.65;13.32;;;;;;;;;;5073552;28;20063;-72
2022/10/25 04:41:15;;;;;;;24.98;12.98;;;;;;;;;;5072795;28;20473;-71
2022/10/25 04:43:41;;;;;;;24.55;13.02;;;;;;;;;;5073190;28;20150;-71
2022/10/25 04:46:07;;;;;;;32.80;14.50;;;;;;;;;;5072809;28;20016;-72
2022/10/25 04:48:36;;;;;;;25.75;14.75;;;;;;;;;;5073026;28;20483;-71
2022/10/25 04:51:02;;;;;;;28.15;16.67;;;;;;;;;;5073255;28;20024;-72
2022/10/25 04:53:28;;;;;;;34.33;19.25;;;;;;;;;;5072967;28;20029;-71
2022/10/25 04:55:58;;;;;;;39.53;19.67;;;;;;;;;;5073108;28;20024;-71
2022/10/25 04:58:25;;;;;;;24.45;15.32;;;;;;;;;;5072712;28;20068;-71
2022/10/25 05:00:51;;;;;;;24.83;14.73;;;;;;;;;;5072724;28;20027;-72
2022/10/25 05:03:18;;;;;;;23.08;14.02;;;;;;;;;;5072654;28;20028;-72
2022/10/25 05:05:44;;;;;;;35.85;16.95;;;;;;;;;;5072791;28;20421;-71
2022/10/25 05:08:10;;;;;;;32.38;18.85;;;;;;;;;;5072554;28;20483;-72
2022/10/25 05:10:36;;;;;;;47.00;26.70;;;;;;;;;;5072524;28;20403;-72
2022/10/25 05:13:02;;;;;;;39.13;22.23;;;;;;;;;;5072656;28;20379;-71
2022/10/25 05:15:28;;;;;;;91.47;47.95;;;;;;;;;;5072741;28;20422;-71
2022/10/25 05:17:58;;;;;;;57.80;34.20;;;;;;;;;;5072545;28;20041;-71
2022/10/25 05:20:24;;;;;;;41.38;25.02;;;;;;;;;;5072713;28;20099;-72
2022/10/25 05:22:50;;;;;;;35.88;19.90;;;;;;;;;;5072638;28;20063;-72
2022/10/25 05:25:17;;;;;;;75.32;41.97;;;;;;;;;;5072432;28;20056;-72
2022/10/25 05:27:43;;;;;;;59.58;35.45;;;;;;;;;;5072901;28;20065;-71
2022/10/25 05:30:09;;;;;;;41.90;22.65;;;;;;;;;;5072531;28;20073;-71
2022/10/25 05:32:35;;;;;;;42.85;19.65;;;;;;;;;;5072391;28;20060;-71
2022/10/25 05:35:01;;;;;;;37.50;20.92;;;;;;;;;;5072277;28;20025;-72
2022/10/25 05:37:27;;;;;;;46.38;20.60;;;;;;;;;;5072119;28;20040;-71
2022/10/25 05:39:53;;;;;;;39.30;19.50;;;;;;;;;;5072371;28;20021;-71
2022/10/25 05:42:19;;;;;;;44.47;20.95;;;;;;;;;;5072391;28;20028;-71
2022/10/25 05:44:45;;;;;;;49.47;22.35;;;;;;;;;;5072300;28;20036;-71
2022/10/25 05:47:11;;;;;;;44.53;21.17;;;;;;;;;;5054572;28;20103;-71
2022/10/25 05:49:39;;;;;;;49.35;21.52;;;;;;;;;;5072084;28;20096;-71
2022/10/25 05:52:06;;;;;;;43.42;21.63;;;;;;;;;;5072716;28;20103;-71
2022/10/25 05:54:32;;;;;;;46.60;22.02;;;;;;;;;;5072102;28;20024;-72
2022/10/25 05:56:58;;;;;;;40.50;23.48;;;;;;;;;;5072078;28;20029;-71
2022/10/25 05:59:24;;;;;;;47.63;23.27;;;;;;;;;;5075549;28;20032;-71
2022/10/25 06:01:50;;;;;;;56.97;24.02;;;;;;;;;;5058127;28;20025;-71
2022/10/25 06:04:17;;;;;;;38.85;20.52;;;;;;;;;;5076033;28;20032;-71
2022/10/25 06:06:44;;;;;;;35.15;19.38;;;;;;;;;;5075962;28;20036;-71
2022/10/25 06:09:10;;;;;;;39.17;19.88;;;;;;;;;;5076088;28;20028;-71
2022/10/25 06:11:37;;;;;;;53.35;21.67;;;;;;;;;;5054248;28;20128;-71
2022/10/25 06:14:03;;;;;;;46.13;20.38;;;;;;;;;;5056079;28;20403;-71
2022/10/25 06:16:30;;;;;;;34.25;19.90;;;;;;;;;;5055623;28;20028;-71
2022/10/25 06:18:56;;;;;;;45.92;20.42;;;;;;;;;;5055895;28;20368;-71
2022/10/25 06:21:23;;;;;;;45.50;19.75;;;;;;;;;;5056140;28;20367;-71
2022/10/25 06:23:49;;;;;;;44.85;19.67;;;;;;;;;;5055836;28;20090;-71
2022/10/25 06:26:17;;;;;;;49.13;24.38;;;;;;;;;;5055571;28;20075;-72
2022/10/25 06:28:44;;;;;;;27.13;15.65;;;;;;;;;;5055608;28;20067;-71
2022/10/25 06:31:11;;;;;;;29.05;13.85;;;;;;;;;;5055522;28;20155;-71
2022/10/25 06:33:37;;;;;;;37.55;14.88;;;;;;;;;;5055564;28;20031;-71
2022/10/25 06:36:04;;;;;;;34.17;16.00;;;;;;;;;;5055310;28;20036;-72
2022/10/25 06:38:31;;;;;;;34.35;17.50;;;;;;;;;;5055339;28;20438;-72
2022/10/25 06:41:01;;;;;;;32.38;17.00;;;;;;;;;;5055108;28;20025;-72
2022/10/25 06:43:27;;;;;;;41.75;20.02;;;;;;;;;;5055423;28;20071;-72
2022/10/25 06:45:53;;;;;;;39.25;19.27;;;;;;;;;;5053804;28;20092;-71
2022/10/25 06:48:20;;;;;;;38.42;20.55;;;;;;;;;;5055302;28;20059;-71
2022/10/25 06:50:46;;;;;;;45.30;21.08;;;;;;;;;;5055101;28;20075;-72
2022/10/25 06:53:12;;;;;;;45.10;21.67;;;;;;;;;;5055076;28;20024;-71
2022/10/25 06:55:38;;;;;;;57.80;32.63;;;;;;;;;;5054972;28;20096;-72
2022/10/25 06:58:04;;;;;;;47.58;23.50;;;;;;;;;;5055040;28;20068;-72
2022/10/25 07:00:30;;;;;;;36.17;21.20;;;;;;;;;;5053778;28;20017;-72
2022/10/25 07:02:59;;;;;;;44.72;24.15;;;;;;;;;;5055289;28;20024;-72
2022/10/25 07:05:26;;;;;;;53.38;23.73;;;;;;;;;;5054956;28;20021;-71
2022/10/25 07:07:52;;;;;;;47.53;23.13;;;;;;;;;;5054896;28;20036;-71
2022/10/25 07:10:18;;;;;;;34.47;20.23;;;;;;;;;;5060318;28;20508;-72
2022/10/25 07:12:44;;;;;;;41.60;19.90;;;;;;;;;;5074923;28;20033;-72
2022/10/25 07:15:11;;;;;;;32.25;18.27;;;;;;;;;;5074875;28;20028;-71
2022/10/25 07:17:37;;;;;;;38.00;18.25;;;;;;;;;;5074552;28;20531;-72
2022/10/25 07:20:03;;;;;;;37.70;21.98;;;;;;;;;;5074772;28;20036;-72
2022/10/25 07:22:29;;;;;;;44.30;23.98;;;;;;;;;;5074606;28;20017;-71
2022/10/25 07:24:55;;;;;;;45.90;27.02;;;;;;;;;;5074469;28;20391;-72
2022/10/25 07:27:22;;;;;;;46.25;27.83;;;;;;;;;;5056661;28;20082;-71
2022/10/25 07:29:48;;;;;;;54.83;29.63;;;;;;;;;;5074589;28;20074;-71
2022/10/25 07:32:14;;;;;;;53.92;30.25;;;;;;;;;;5074493;28;20471;-72
2022/10/25 07:34:40;;;;;;;58.03;33.40;;;;;;;;;;5074318;28;20111;-72
2022/10/25 07:37:07;;;;;;;55.92;28.50;;;;;;;;;;5074213;28;20032;-71
2022/10/25 07:39:33;;;;;;;41.75;23.02;;;;;;;;;;5074215;28;20020;-71
2022/10/25 07:41:59;;;;;;;47.10;24.83;;;;;;;;;;5056057;28;20493;-71
2022/10/25 07:44:25;;;;;;;45.95;24.65;;;;;;;;;;5074146;28;20017;-71
2022/10/25 07:46:52;;;;;;;84.20;44.25;;;;;;;;;;5074224;28;20027;-71
2022/10/25 07:49:18;;;;;;;51.13;27.52;;;;;;;;;;5056535;28;20475;-71
2022/10/25 07:51:44;;;;;;;43.00;20.92;;;;;;;;;;5073965;28;20570;-71
2022/10/25 07:54:10;;;;;;;18.17;10.25;;;;;;;;;;5074241;28;20031;-71
2022/10/25 07:56:36;;;;;;;33.05;12.30;;;;;;;;;;5073764;28;20021;-72
2022/10/25 07:59:02;;;;;;;30.17;13.63;;;;;;;;;;5073906;28;20032;-71
2022/10/25 08:01:28;;;;;;;21.42;11.93;;;;;;;;;;5073723;28;20072;-71
2022/10/25 08:03:55;;;;;;;27.00;12.13;;;;;;;;;;5074040;28;20024;-71
2022/10/25 08:06:22;;;;;;;24.13;12.07;;;;;;;;;;5073638;28;20024;-72
2022/10/25 08:08:49;;;;;;;21.25;11.75;;;;;;;;;;5073712;28;20020;-72
2022/10/25 08:11:15;;;;;;;28.70;11.32;;;;;;;;;;5073476;28;20534;-72
2022/10/25 08:13:41;;;;;;;24.83;11.27;;;;;;;;;;5073593;28;20052;-73
2022/10/25 08:16:07;;;;;;;29.00;14.48;;;;;;;;;;5073702;28;20064;-72
2022/10/25 08:18:34;;;;;;;38.45;16.55;;;;;;;;;;5073367;28;20065;-72
2022/10/25 08:21:01;;;;;;;19.25;11.25;;;;;;;;;;5073504;28;20032;-72
2022/10/25 08:23:27;;;;;;;26.27;13.00;;;;;;;;;;5073175;28;20076;-72
2022/10/25 08:25:53;;;;;;;20.40;12.13;;;;;;;;;;5073467;28;20025;-72
2022/10/25 08:28:19;;;;;;;23.25;12.48;;;;;;;;;;5073184;28;20506;-72
2022/10/25 08:30:45;;;;;;;31.38;19.55;;;;;;;;;;5073275;28;20424;-72
2022/10/25 08:33:11;;;;;;;22.15;12.00;;;;;;;;;;5073283;28;20422;-72
2022/10/25 08:35:37;;;;;;;25.23;12.50;;;;;;;;;;5073016;28;20027;-72
2022/10/25 08:38:04;;;;;;;23.02;12.13;;;;;;;;;;5073446;28;20506;-72
2022/10/25 08:40:48;;;;;;;25.45;13.55;;;;;;;;;;5073502;28;20024;-72
2022/10/25 08:43:25;;;;;;;18.92;10.60;;;;;;;;;;5042940;28;20028;-72
2022/10/25 08:45:55;;;;;;;24.33;11.85;;;;;;;;;;5072821;28;20033;-72
2022/10/25 08:48:24;;;;;;;29.42;12.68;;;;;;;;;;5072911;28;20384;-72
2022/10/25 08:50:52;;;;;;;27.85;14.15;;;;;;;;;;5072601;28;20111;-72
2022/10/25 08:53:23;;;;;;;26.50;13.38;;;;;;;;;;5072645;28;20017;-72
2022/10/25 08:55:50;;;;;;;26.00;12.50;;;;;;;;;;5072848;28;20082;-72
2022/10/25 08:58:20;;;;;;;26.08;12.13;;;;;;;;;;5072588;28;20071;-72
2022/10/25 09:00:48;;;;;;;24.25;12.82;;;;;;;;;;5072734;28;20108;-72
2022/10/25 09:03:24;;;;;;;24.33;12.68;;;;;;;;;;5072603;28;20056;-72
2022/10/25 09:05:50;;;;;;;23.98;13.05;;;;;;;;;;5072786;28;20036;-71
2022/10/25 09:08:34;;;;;;;22.50;12.27;;;;;;;;;;5072476;28;20020;-72
2022/10/25 09:11:00;;;;;;;25.10;10.90;;;;;;;;;;5072733;28;20048;-71
2022/10/25 09:13:52;;;;;;;18.45;11.75;;;;;;;;;;5072486;28;20016;-71
2022/10/25 09:16:21;;;;;;;23.38;13.73;;;;;;;;;;5068021;28;20044;-72
2022/10/25 09:18:52;;;;;;;23.77;12.65;;;;;;;;;;5072418;28;20504;-72
2022/10/25 09:21:21;;;;;;;25.48;13.65;;;;;;;;;;5072805;28;20056;-72
2022/10/25 09:24:14;;;;;;;24.90;12.80;;;;;;;;;;5072477;28;20032;-71
2022/10/25 09:26:49;;;;;;;27.35;15.38;;;;;;;;;;5034817;28;20071;-72
2022/10/25 09:29:21;;;;;;;23.63;14.07;;;;;;;;;;5072233;28;20087;-72
2022/10/25 09:31:50;;;;;;;30.50;11.48;;;;;;;;;;5072252;28;20443;-72
2022/10/25 09:34:18;;;;;;;19.13;11.15;;;;;;;;;;5071815;28;20029;-72
2022/10/25 09:36:48;;;;;;;24.17;11.57;;;;;;;;;;5072120;28;20021;-72
2022/10/25 09:39:23;;;;;;;21.70;11.63;;;;;;;;;;5072268;28;20487;-72
2022/10/25 09:41:52;;;;;;;21.05;10.73;;;;;;;;;;5072247;28;20025;-71
2022/10/25 09:44:21;;;;;;;19.77;10.52;;;;;;;;;;5072516;28;20024;-72
2022/10/25 09:47:06;;;;;;;20.20;10.63;;;;;;;;;;5072211;28;20024;-72
2022/10/25 09:49:38;;;;;;;18.10;9.43;;;;;;;;;;5072430;28;20142;-72
2022/10/25 09:52:07;;;;;;;19.67;10.07;;;;;;;;;;5071986;28;20025;-72
2022/10/25 09:54:43;;;;;;;20.23;11.00;;;;;;;;;;5071943;28;20048;-72
2022/10/25 09:57:09;;;;;;;21.25;10.57;;;;;;;;;;5072055;28;20473;-72
2022/10/25 09:59:36;;;;;;;20.02;10.48;;;;;;;;;;5072163;28;20028;-72
2022/10/25 10:02:02;;;;;;;13.88;9.23;;;;;;;;;;5071869;28;20107;-72
2022/10/25 10:04:35;;;;;;;20.38;9.57;;;;;;;;;;5071619;28;20467;-72
2022/10/25 10:07:11;;;;;;;16.10;9.00;;;;;;;;;;5072095;28;20028;-72
2022/10/25 10:09:39;;;;;;;21.58;9.63;;;;;;;;;;5071812;28;20459;-72
2022/10/25 10:12:14;;;;;;;13.68;8.20;;;;;;;;;;5054092;28;20051;-71
2022/10/25 10:14:44;;;;;;;14.77;9.68;;;;;;;;;;5071726;28;20475;-71
2022/10/25 10:17:13;;;;;;;15.30;9.10;;;;;;;;;;5071799;28;20501;-71
2022/10/25 10:19:40;;;;;;;19.88;10.77;;;;;;;;;;5071698;28;20040;-71
2022/10/25 10:22:12;;;;;;;20.65;12.00;;;;;;;;;;5071914;28;20024;-71
2022/10/25 10:24:42;;;;;;;21.88;11.30;;;;;;;;;;5071709;28;20082;-71
2022/10/25 10:27:10;;;;;;;20.00;11.52;;;;;;;;;;5071902;28;20028;-72
2022/10/25 10:29:37;;;;;;;24.08;11.00;;;;;;;;;;5053667;28;20479;-72
2022/10/25 10:32:23;;;;;;;21.08;10.25;;;;;;;;;;5053710;28;20584;-72
2022/10/25 10:34:54;;;;;;;19.35;9.98;;;;;;;;;;5071891;28;20029;-72
2022/10/25 10:37:21;;;;;;;18.33;11.35;;;;;;;;;;5071561;28;20359;-72
2022/10/25 10:39:56;;;;;;;17.90;11.43;;;;;;;;;;5071721;28;20017;-72
2022/10/25 10:42:23;;;;;;;17.50;10.90;;;;;;;;;;5071691;28;20036;-72
2022/10/25 10:45:01;;;;;;;16.65;9.07;;;;;;;;;;5073777;28;20028;-72
2022/10/25 10:47:29;;;;;;;14.55;8.90;;;;;;;;;;5075005;28;20459;-72
2022/10/25 10:49:56;;;;;;;19.10;10.30;;;;;;;;;;5075333;28;20032;-72
2022/10/25 10:52:30;;;;;;;14.35;8.52;;;;;;;;;;5075429;28;20025;-72
2022/10/25 10:54:57;;;;;;;17.25;10.32;;;;;;;;;;5074897;28;20020;-72
2022/10/25 10:57:31;;;;;;;17.73;10.15;;;;;;;;;;5074963;28;20086;-72
2022/10/25 10:59:58;;;;;;;20.10;12.07;;;;;;;;;;5074913;28;20016;-72
2022/10/25 11:02:33;;;;;;;24.50;13.05;;;;;;;;;;5074990;28;20059;-72
2022/10/25 11:04:59;;;;;;;21.33;14.77;;;;;;;;;;5074792;28;20024;-72
2022/10/25 11:07:25;;;;;;;17.60;10.05;;;;;;;;;;5074842;28;20032;-72
2022/10/25 11:09:54;;;;;;;21.33;10.18;;;;;;;;;;5074661;28;20029;-72
2022/10/25 11:12:21;;;;;;;11.02;9.25;;;;;;;;;;5074688;28;20494;-72
2022/10/25 11:14:47;;;;;;;14.63;8.48;;;;;;;;;;5074483;28;20017;-72
2022/10/25 11:17:13;;;;;;;16.00;8.85;;;;;;;;;;5075004;28;20028;-72
2022/10/25 11:19:57;;;;;;;13.77;8.98;;;;;;;;;;5074528;28;20036;-72
2022/10/25 11:22:41;;;;;;;11.38;7.90;;;;;;;;;;5062572;28;20024;-73
2022/10/25 11:25:28;;;;;;;18.52;9.52;;;;;;;;;;5074543;28;20025;-73
2022/10/25 11:28:03;;;;;;;13.65;9.23;;;;;;;;;;5074744;28;20046;-73
2022/10/25 11:30:34;;;;;;;14.15;9.02;;;;;;;;;;5074393;28;20020;-73
2022/10/25 11:33:20;;;;;;;9.65;7.47;;;;;;;;;;5074377;28;20078;-73
2022/10/25 11:36:05;;;;;;;14.63;7.55;;;;;;;;;;5060695;28;20024;-73
2022/10/25 11:38:50;;;;;;;11.93;6.97;;;;;;;;;;5074571;28;20483;-73
2022/10/25 11:41:32;;;;;;;17.52;8.63;;;;;;;;;;5074219;28;20078;-73
2022/10/25 11:44:10;;;;;;;15.48;7.50;;;;;;;;;;5056488;28;20021;-73
2022/10/25 11:46:45;;;;;;;12.70;7.38;;;;;;;;;;5062156;28;20020;-73
2022/10/25 11:49:30;;;;;;;19.23;9.43;;;;;;;;;;5073988;28;20027;-73
2022/10/25 11:52:14;;;;;;;8.02;6.70;;;;;;;;;;5074147;28;20028;-73
2022/10/25 11:54:46;;;;;;;7.75;6.00;;;;;;;;;;5074019;28;20023;-73
2022/10/25 11:57:31;;;;;;;10.07;6.57;;;;;;;;;;5073438;28;20046;-73
2022/10/25 12:00:03;;;;;;;10.90;6.53;;;;;;;;;;5073972;28;20028;-73
2022/10/25 12:02:48;;;;;;;9.65;5.80;;;;;;;;;;5073864;28;20032;-73
2022/10/25 12:05:37;;;;;;;10.10;5.95;;;;;;;;;;5060836;28;20083;-73
2022/10/25 12:08:09;;;;;;;10.32;6.78;;;;;;;;;;4975908;28;20073;-73
2022/10/25 12:10:48;;;;;;;9.48;7.05;;;;;;;;;;4992211;28;20047;-73
2022/10/25 12:13:18;;;;;;;12.57;8.82;;;;;;;;;;4992177;28;20053;-73
2022/10/25 12:15:49;;;;;;;13.80;9.35;;;;;;;;;;4992501;28;20038;-73
2022/10/25 12:18:17;;;;;;;15.05;6.93;;;;;;;;;;4992172;28;20464;-73
2022/10/25 12:20:46;;;;;;;12.32;5.90;;;;;;;;;;4992263;28;20088;-74
2022/10/25 12:23:14;;;;;;;9.20;5.80;;;;;;;;;;4992307;28;20044;-73
2022/10/25 12:25:44;;;;;;;15.68;6.90;;;;;;;;;;4991868;28;20062;-74
2022/10/25 12:28:10;;;;;;;10.07;6.68;;;;;;;;;;4991911;28;20037;-74
2022/10/25 12:30:36;;;;;;;12.52;5.47;;;;;;;;;;4991980;28;20105;-73
2022/10/25 12:33:07;;;;;;;12.60;7.80;;;;;;;;;;4992039;28;20066;-73
2022/10/25 12:35:39;;;;;;;11.70;6.53;;;;;;;;;;4991850;28;20018;-73
2022/10/25 12:38:09;;;;;;;13.27;6.25;;;;;;;;;;4991855;28;20567;-73
2022/10/25 12:40:41;;;;;;;12.17;7.03;;;;;;;;;;4991709;28;20088;-73
2022/10/25 12:43:10;;;;;;;12.35;6.22;;;;;;;;;;4991998;28;20038;-73
2022/10/25 12:45:53;;;;;;;15.02;8.13;;;;;;;;;;5037105;28;20037;-73
2022/10/25 12:48:19;;;;;;;7.65;5.25;;;;;;;;;;5040954;28;20047;-72
2022/10/25 12:51:12;;;;;;;12.95;6.78;;;;;;;;;;5053252;28;20111;-73
2022/10/25 12:53:56;;;;;;;13.25;7.60;;;;;;;;;;5026670;28;20458;-73
2022/10/25 12:56:45;;;;;;;13.45;7.30;;;;;;;;;;5053105;28;20079;-73
2022/10/25 12:59:20;;;;;;;9.63;6.05;;;;;;;;;;4991529;28;20516;-72
2022/10/25 13:01:55;;;;;;;8.02;5.28;;;;;;;;;;4991493;28;20104;-73
2022/10/25 13:04:53;;;;;;;13.13;6.07;;;;;;;;;;4991379;28;20038;-73
2022/10/25 13:07:20;;;;;;;9.75;5.10;;;;;;;;;;4913803;29;20068;-74
2022/10/25 13:09:46;;;;;;;11.88;8.57;;;;;;;;;;4914143;29;20039;-72
2022/10/25 13:12:15;;;;;;;9.40;5.32;;;;;;;;;;4914455;29;20048;-73
2022/10/25 13:14:46;;;;;;;8.48;5.15;;;;;;;;;;4914615;29;20036;-74
2022/10/25 13:17:15;;;;;;;13.30;7.15;;;;;;;;;;4914527;29;20075;-73
2022/10/25 13:19:54;;;;;;;13.43;7.15;;;;;;;;;;4914401;29;20040;-73
2022/10/25 13:22:37;;;;;;;12.02;5.47;;;;;;;;;;4914676;29;20036;-73
2022/10/25 13:25:04;;;;;;;10.55;6.10;;;;;;;;;;4914212;29;20136;-72
2022/10/25 13:27:31;;;;;;;9.13;5.43;;;;;;;;;;4914361;29;20024;-73
2022/10/25 13:29:59;;;;;;;14.93;7.35;;;;;;;;;;4914276;29;20101;-73
2022/10/25 13:32:26;;;;;;;10.95;6.03;;;;;;;;;;4914391;29;20101;-73
2022/10/25 13:34:52;;;;;;;14.93;6.13;;;;;;;;;;4914294;29;20108;-73
2022/10/25 13:37:33;;;;;;;12.82;6.40;;;;;;;;;;4988262;28;20113;-73
2022/10/25 13:40:02;;;;;;;9.30;6.47;;;;;;;;;;4991212;28;20040;-73
2022/10/25 13:42:32;;;;;;;32.47;19.42;;;;;;;;;;5011020;28;20041;-73
2022/10/25 13:45:01;;;;;;;19.67;13.77;;;;;;;;;;5052350;28;20029;-73
2022/10/25 13:47:40;;;;;;;27.55;17.30;;;;;;;;;;5052247;28;20021;-73
2022/10/25 13:50:19;;;;;;;32.50;18.15;;;;;;;;;;5052144;28;20029;-73
2022/10/25 13:52:51;;;;;;;29.55;17.83;;;;;;;;;;5052120;28;20072;-73
2022/10/25 13:55:20;;;;;;;25.48;13.77;;;;;;;;;;5052222;28;20055;-73
2022/10/25 13:57:49;;;;;;;18.77;13.15;;;;;;;;;;5051984;28;20029;-73
2022/10/25 14:00:21;;;;;;;14.75;8.98;;;;;;;;;;5052013;28;20108;-73
2022/10/25 14:03:02;;;;;;;13.98;9.20;;;;;;;;;;5051770;28;20033;-73
2022/10/25 14:05:47;;;;;;;16.08;11.60;;;;;;;;;;5052045;28;20017;-73
2022/10/25 14:08:18;;;;;;;12.00;8.85;;;;;;;;;;5052057;28;20068;-72
2022/10/25 14:10:46;;;;;;;19.23;10.98;;;;;;;;;;5059938;28;20045;-73
2022/10/25 14:13:19;;;;;;;17.63;12.50;;;;;;;;;;5072292;28;20025;-75
2022/10/25 14:15:48;;;;;;;12.90;8.43;;;;;;;;;;5072274;28;20086;-72
2022/10/25 14:18:20;;;;;;;19.65;11.52;;;;;;;;;;5071896;28;20429;-75
2022/10/25 14:20:52;;;;;;;17.90;10.65;;;;;;;;;;5075690;28;20085;-73
2022/10/25 14:23:21;;;;;;;12.95;7.00;;;;;;;;;;5075742;28;20063;-73
2022/10/25 14:25:57;;;;;;;27.80;12.23;;;;;;;;;;5075833;28;20021;-72
2022/10/25 14:28:31;;;;;;;15.50;9.10;;;;;;;;;;5057446;28;20024;-73
2022/10/25 14:31:01;;;;;;;16.95;8.95;;;;;;;;;;5075549;28;20028;-72
2022/10/25 14:33:34;;;;;;;16.05;8.45;;;;;;;;;;5075515;28;20038;-72
2022/10/25 14:36:19;;;;;;;19.80;11.43;;;;;;;;;;5075419;28;20055;-74